CheckWX is a tool to help pilots better visualize weather data.  It is not intended as a substitute for an official pre-flight weather briefing.

18:24:02 UTC

KTEW METAR
Mason Jewett Field Airport
Mason, Michigan, USA
Current

8 mins ago

KTEW 201816Z AUTO 00000KT 10SM CLR 28/15 A3014 RMK AO2 T02750146
Observed
Sep-20 @ 18:16 UTC
Visibility
10 SM
Flight Rules
VFR
Cloud Levels
  • Clear skies
Temperature
28°C / 82°F
Dewpoint
15°C / 59°F
Heat Index
28°C / 82°F
Humidity
45%
Altimeter
30.14" Hg
Pressure
1020.62 hPa
Previous

28 mins ago

KTEW 201756Z AUTO 00000KT 10SM CLR 27/14 A3014 RMK AO2 T02740135 10276 20144
Observed
Sep-20 @ 17:56 UTC
Visibility
10 SM
Flight Rules
VFR
Cloud Levels
  • Clear skies
Temperature
27°C / 81°F
Dewpoint
14°C / 57°F
Heat Index
27°C / 81°F
Humidity
45%
Altimeter
30.14" Hg
Pressure
1020.62 hPa
Previous

1 hour ago

KTEW 201720Z AUTO 00000KT 10SM CLR 27/13 A3015 RMK AO2 T02690128
Observed
Sep-20 @ 17:20 UTC
Visibility
10 SM
Flight Rules
VFR
Cloud Levels
  • Clear skies
Temperature
27°C / 81°F
Dewpoint
13°C / 55°F
Heat Index
27°C / 81°F
Humidity
42%
Altimeter
30.15" Hg
Pressure
1021.02 hPa